Aviation Digital Data Service (ADDS)

Output produced by METARs form (0647 UTC 03 December 2016)
found at http://aviationweather.gov/adds/metars/
 
KFAY 030533Z 0306/0406 29007KT P6SM SCT250 
     FM031400 33008KT P6SM SCT200 
     FM040100 VRB03KT P6SM BKN150